createdAt,value
2022-09-01T00:00:12.818Z,101004.65
2022-09-01T00:03:00.319Z,101001.45
2022-09-01T00:05:28.430Z,100998.41
2022-09-01T00:07:55.992Z,101001.53
2022-09-01T00:10:23.659Z,101002.67
2022-09-01T00:12:51.170Z,101002.00
2022-09-01T00:15:18.983Z,101001.69
2022-09-01T00:17:46.785Z,100999.06
2022-09-01T00:20:19.638Z,100998.63
2022-09-01T00:22:48.627Z,101000.82
2022-09-01T00:25:18.745Z,101005.31
2022-09-01T00:27:48.026Z,101007.98
2022-09-01T00:30:15.605Z,101007.27
2022-09-01T00:32:46.341Z,101008.27
2022-09-01T00:35:17.343Z,101005.18
2022-09-01T00:37:45.655Z,100999.72
2022-09-01T00:40:15.808Z,100996.80
2022-09-01T00:42:44.757Z,100997.74
2022-09-01T00:45:12.234Z,100995.55
2022-09-01T00:47:39.773Z,100998.51
2022-09-01T00:50:11.761Z,100996.21
2022-09-01T00:52:52.530Z,100992.54
2022-09-01T00:55:29.612Z,100991.33
2022-09-01T00:57:59.467Z,100986.13
2022-09-01T01:00:31.952Z,100983.71
2022-09-01T01:02:59.559Z,100978.95
2022-09-01T01:05:33.697Z,100976.55
2022-09-01T01:08:03.177Z,100980.58
2022-09-01T01:10:35.394Z,100980.68
2022-09-01T01:13:13.613Z,100982.37
2022-09-01T01:15:45.209Z,100982.11
2022-09-01T01:18:18.882Z,100975.79
2022-09-01T01:21:32.269Z,100983.72
2022-09-01T01:24:19.205Z,100983.13
2022-09-01T01:26:47.129Z,100986.67
2022-09-01T01:29:15.509Z,100990.19
2022-09-01T01:31:43.477Z,100995.80
2022-09-01T01:34:11.050Z,100995.02
2022-09-01T01:36:39.679Z,100996.13
2022-09-01T01:39:25.116Z,100998.17
2022-09-01T01:41:57.236Z,100999.07
2022-09-01T01:44:27.845Z,100996.13
2022-09-01T01:46:57.529Z,100999.25
2022-09-01T01:49:28.656Z,101004.92
2022-09-01T01:51:57.634Z,101005.89
2022-09-01T01:54:31.131Z,101009.23
2022-09-01T01:57:00.669Z,101010.64
2022-09-01T01:59:29.378Z,101010.22
2022-09-01T02:01:57.840Z,101014.47
2022-09-01T02:04:25.404Z,101016.61
2022-09-01T02:06:53.148Z,101014.48
2022-09-01T02:09:22.928Z,101010.11
2022-09-01T02:11:56.774Z,101013.45
2022-09-01T02:14:24.768Z,101015.55
2022-09-01T02:16:55.766Z,101016.02
2022-09-01T02:19:23.448Z,101023.05
2022-09-01T02:21:54.088Z,101023.81
2022-09-01T02:24:23.653Z,101021.48
2022-09-01T02:26:51.042Z,101020.38
2022-09-01T02:29:23.519Z,101015.50
2022-09-01T02:31:53.608Z,101015.80
2022-09-01T02:34:23.752Z,101016.17
2022-09-01T02:36:55.284Z,101016.23
2022-09-01T02:39:28.793Z,101017.27
2022-09-01T02:41:56.608Z,101016.64
2022-09-01T02:44:30.583Z,101021.84
2022-09-01T02:46:59.419Z,101024.17
2022-09-01T02:49:29.419Z,101023.14
2022-09-01T02:52:00.827Z,101023.05
2022-09-01T02:54:30.845Z,101025.44
2022-09-01T02:56:58.746Z,101028.71
2022-09-01T02:59:29.844Z,101031.33
2022-09-01T03:02:01.275Z,101032.05
2022-09-01T03:04:33.435Z,101031.66
2022-09-01T03:07:04.007Z,101038.63
2022-09-01T03:09:32.375Z,101034.45
2022-09-01T03:11:59.759Z,101028.27
2022-09-01T03:14:28.056Z,101030.19
2022-09-01T03:16:56.826Z,101027.70
2022-09-01T03:19:24.391Z,101025.70
2022-09-01T03:21:51.850Z,101032.71
2022-09-01T03:24:22.274Z,101040.95
2022-09-01T03:26:53.029Z,101041.79
2022-09-01T03:29:20.684Z,101042.90
2022-09-01T03:31:49.177Z,101042.42
2022-09-01T03:34:21.438Z,101042.66
2022-09-01T03:36:51.000Z,101035.89
2022-09-01T03:39:36.430Z,101032.34
2022-09-01T03:42:07.931Z,101035.73
2022-09-01T03:44:35.968Z,101035.15
2022-09-01T03:47:03.510Z,101035.66
2022-09-01T03:49:32.385Z,101033.30
2022-09-01T03:52:01.082Z,101032.14
2022-09-01T03:54:29.980Z,101035.52
2022-09-01T03:56:59.690Z,101031.46
2022-09-01T03:59:29.453Z,101033.27
2022-09-01T04:01:57.608Z,101035.85
2022-09-01T04:04:25.669Z,101038.00
2022-09-01T04:06:53.451Z,101033.90
2022-09-01T04:09:20.854Z,101035.88
2022-09-01T04:11:48.346Z,101031.60
2022-09-01T04:14:16.604Z,101022.27
2022-09-01T04:17:04.329Z,101019.81
2022-09-01T04:19:39.178Z,101021.93
2022-09-01T04:22:07.861Z,101019.34
2022-09-01T04:24:45.249Z,101020.27
2022-09-01T04:27:14.966Z,101022.27
2022-09-01T04:29:45.350Z,101019.05
2022-09-01T04:32:13.295Z,101024.52
2022-09-01T04:34:50.538Z,101024.38
2022-09-01T04:37:21.337Z,101028.59
2022-09-01T04:39:57.100Z,101033.73
2022-09-01T04:42:28.774Z,101030.80
2022-09-01T04:44:57.054Z,101038.26
2022-09-01T04:47:35.695Z,101031.80
2022-09-01T04:50:17.260Z,101027.56
2022-09-01T04:53:06.450Z,101029.45
2022-09-01T04:55:49.735Z,101030.34
2022-09-01T04:58:18.368Z,101027.95
2022-09-01T05:00:51.902Z,101024.47
2022-09-01T05:03:23.592Z,101020.17
2022-09-01T05:06:02.341Z,101017.48
2022-09-01T05:08:32.821Z,101023.15
2022-09-01T05:11:07.410Z,101027.39
2022-09-01T05:13:39.349Z,101031.77
2022-09-01T05:16:14.820Z,101035.45
2022-09-01T05:18:48.431Z,101043.13
2022-09-01T05:21:21.751Z,101043.70
2022-09-01T05:23:51.508Z,101041.20
2022-09-01T05:26:25.785Z,101036.30
2022-09-01T05:28:58.463Z,101032.47
2022-09-01T05:31:34.325Z,101027.62
2022-09-01T05:34:03.040Z,101027.33
2022-09-01T05:36:33.868Z,101031.89
2022-09-01T05:39:06.655Z,101031.23
2022-09-01T05:41:36.889Z,101029.95
2022-09-01T05:44:07.879Z,101030.63
2022-09-01T05:46:38.663Z,101028.05
2022-09-01T05:49:13.141Z,101030.17
2022-09-01T05:51:45.423Z,101032.30
2022-09-01T05:54:17.241Z,101036.71
2022-09-01T05:56:45.077Z,101041.23
2022-09-01T05:59:24.936Z,101041.72
2022-09-01T06:01:56.733Z,101044.77
2022-09-01T06:04:25.723Z,101037.10
2022-09-01T06:07:06.671Z,101039.86
2022-09-01T06:09:43.010Z,101038.31
2022-09-01T06:12:16.916Z,101041.09
2022-09-01T06:14:46.636Z,101039.25
2022-09-01T06:17:19.014Z,101037.67
2022-09-01T06:19:46.454Z,101036.42
2022-09-01T06:22:14.669Z,101037.51
2022-09-01T06:24:43.595Z,101043.27
2022-09-01T06:27:12.765Z,101043.69
2022-09-01T06:29:41.200Z,101049.84
2022-09-01T06:32:09.922Z,101049.75
2022-09-01T06:34:44.161Z,101047.20
2022-09-01T06:37:12.928Z,101050.58
2022-09-01T06:39:40.979Z,101053.20
2022-09-01T06:42:12.548Z,101053.27
2022-09-01T06:44:52.629Z,101056.83
2022-09-01T06:47:20.764Z,101060.41
2022-09-01T06:49:48.220Z,101059.51
2022-09-01T06:52:23.228Z,101059.29
2022-09-01T06:54:55.497Z,101061.13
2022-09-01T07:00:18.872Z,101052.66
2022-09-01T07:02:54.635Z,101055.85
2022-09-01T07:06:02.892Z,101052.61
2022-09-01T07:12:26.735Z,101048.48
2022-09-01T07:17:55.713Z,101045.41
2022-09-01T07:21:02.838Z,101045.83
2022-09-01T07:23:46.149Z,101045.55
2022-09-01T07:26:26.346Z,101051.23
2022-09-01T07:29:04.152Z,101047.27
2022-09-01T07:32:43.828Z,101047.59
2022-09-01T07:34:40.257Z,101042.96
2022-09-01T07:38:47.363Z,101043.48
2022-09-01T07:42:31.940Z,101049.73
2022-09-01T07:45:59.433Z,101042.44
2022-09-01T07:51:36.404Z,101039.05
2022-09-01T07:54:05.912Z,101038.20
2022-09-01T07:56:39.499Z,101039.02
2022-09-01T07:59:09.100Z,101038.50
2022-09-01T08:01:47.142Z,101034.09
2022-09-01T08:04:16.317Z,101028.44
2022-09-01T08:06:43.787Z,101031.02
2022-09-01T08:09:11.641Z,101033.29
2022-09-01T08:14:27.517Z,101025.80
2022-09-01T08:16:55.577Z,101025.71
2022-09-01T08:19:23.241Z,101025.36
2022-09-01T08:22:43.915Z,101024.60
2022-09-01T08:25:54.873Z,101024.94
2022-09-01T08:28:29.835Z,101024.83
2022-09-01T08:30:59.693Z,101027.26
2022-09-01T08:33:27.332Z,101027.77
2022-09-01T08:35:56.733Z,101025.81
2022-09-01T08:38:24.700Z,101022.66
2022-09-01T08:40:57.006Z,101020.87
2022-09-01T08:44:14.427Z,101021.65
2022-09-01T08:46:43.997Z,101020.48
2022-09-01T08:49:25.687Z,101018.27
2022-09-01T08:53:13.235Z,101015.62
2022-09-01T08:55:47.273Z,101016.70
2022-09-01T08:58:18.461Z,101013.30
2022-09-01T09:01:00.749Z,101018.80
2022-09-01T09:03:56.913Z,101023.77
2022-09-01T09:06:39.815Z,101021.40
2022-09-01T09:09:09.274Z,101020.92
2022-09-01T09:12:08.740Z,101014.77
2022-09-01T09:15:04.335Z,101014.71
2022-09-01T09:17:41.361Z,101016.91
2022-09-01T09:20:09.756Z,101010.60
2022-09-01T09:22:38.590Z,101001.77
2022-09-01T09:25:15.672Z,101003.27
2022-09-01T09:28:00.145Z,100997.36
2022-09-01T09:30:31.067Z,101000.97
2022-09-01T09:35:53.977Z,100998.69
2022-09-01T09:38:33.293Z,100994.54
2022-09-01T09:41:18.976Z,100981.56
2022-09-01T09:44:19.078Z,100981.66
2022-09-01T09:46:48.446Z,100987.33
2022-09-01T09:49:21.638Z,100993.55
2022-09-01T09:52:09.953Z,100988.58
2022-09-01T09:55:00.282Z,100991.09
2022-09-01T09:57:30.494Z,100990.56
2022-09-01T10:00:01.389Z,100990.91
2022-09-01T10:02:30.921Z,100994.52
2022-09-01T10:05:01.906Z,100991.02
2022-09-01T10:07:37.502Z,100988.92
2022-09-01T10:10:25.309Z,100989.88
2022-09-01T10:12:54.819Z,100986.26
2022-09-01T10:15:30.167Z,100990.91
2022-09-01T10:18:20.732Z,100985.62
2022-09-01T10:21:16.621Z,100984.81
2022-09-01T10:23:44.891Z,100985.81
2022-09-01T10:26:32.153Z,100978.45
2022-09-01T10:29:25.097Z,100977.35
2022-09-01T10:32:14.891Z,100975.02
2022-09-01T10:34:45.037Z,100978.45
2022-09-01T10:37:16.146Z,100981.30
2022-09-01T10:40:21.007Z,100980.37
2022-09-01T10:43:37.522Z,100979.80
2022-09-01T10:46:38.971Z,100984.20
2022-09-01T10:49:27.667Z,100980.85
2022-09-01T10:52:02.586Z,100977.95
2022-09-01T10:54:50.865Z,100973.67
2022-09-01T10:57:30.601Z,100974.23
2022-09-01T11:06:14.110Z,100980.58
2022-09-01T11:08:55.029Z,100976.62
2022-09-01T11:11:30.484Z,100974.79
2022-09-01T11:13:59.369Z,100974.50
2022-09-01T11:16:51.077Z,100970.71
2022-09-01T11:19:57.913Z,100971.51
2022-09-01T11:22:40.203Z,100968.98
2022-09-01T11:28:44.397Z,100964.30
2022-09-01T11:31:28.511Z,100962.39
2022-09-01T11:34:03.644Z,100963.35
2022-09-01T11:36:48.814Z,100961.15
2022-09-01T11:39:32.031Z,100960.90
2022-09-01T11:42:22.637Z,100962.58
2022-09-01T11:45:21.424Z,100962.48
2022-09-01T11:47:54.766Z,100956.26
2022-09-01T11:50:28.389Z,100950.41
2022-09-01T11:53:15.128Z,100945.16
2022-09-01T11:55:46.849Z,100940.59
2022-09-01T11:58:30.447Z,100941.24
2022-09-01T12:01:30.466Z,100938.13
2022-09-01T12:04:17.274Z,100937.80
2022-09-01T12:07:24.348Z,100941.10
2022-09-01T12:09:52.489Z,100946.33
2022-09-01T12:12:38.269Z,100941.23
2022-09-01T12:15:26.778Z,100938.40
2022-09-01T12:18:28.707Z,100934.86
2022-09-01T12:21:01.745Z,100925.95
2022-09-01T12:23:42.840Z,100924.73
2022-09-01T12:26:14.830Z,100921.30
2022-09-01T12:28:43.694Z,100917.17
2022-09-01T12:31:19.541Z,100914.51
2022-09-01T12:33:48.468Z,100919.48
2022-09-01T12:36:36.701Z,100912.66
2022-09-01T12:39:23.899Z,100914.02
2022-09-01T12:42:08.804Z,100911.53
2022-09-01T12:44:44.121Z,100917.79
2022-09-01T12:47:47.178Z,100917.81
2022-09-01T12:50:16.400Z,100919.36
2022-09-01T12:52:54.419Z,100923.22
2022-09-01T12:58:12.411Z,100928.45
2022-09-01T13:01:17.637Z,100928.84
2022-09-01T13:04:11.317Z,100932.89
2022-09-01T13:06:39.359Z,100933.55
2022-09-01T13:09:07.006Z,100932.98
2022-09-01T13:14:25.341Z,100922.11
2022-09-01T13:16:55.886Z,100920.84
2022-09-01T13:19:28.007Z,100923.42
2022-09-01T13:21:58.583Z,100928.33
2022-09-01T13:24:30.203Z,100924.52
2022-09-01T13:29:46.453Z,100922.88
2022-09-01T13:32:19.886Z,100924.53
2022-09-01T13:34:51.847Z,100928.77
2022-09-01T13:37:22.210Z,100931.83
2022-09-01T13:39:50.587Z,100935.38
2022-09-01T13:42:18.926Z,100933.39
2022-09-01T13:44:49.630Z,100937.92
2022-09-01T13:47:32.697Z,100940.08
2022-09-01T13:50:10.368Z,100938.64
2022-09-01T13:52:43.838Z,100938.09
2022-09-01T13:55:15.458Z,100939.13
2022-09-01T13:57:43.750Z,100943.27
2022-09-01T14:00:16.771Z,100947.69
2022-09-01T14:02:51.546Z,100951.93
2022-09-01T14:05:27.113Z,100953.70
2022-09-01T14:07:55.853Z,100957.33
2022-09-01T14:10:25.149Z,100956.02
2022-09-01T14:12:53.074Z,100956.30
2022-09-01T14:15:26.974Z,100954.10
2022-09-01T14:17:57.473Z,100959.23
2022-09-01T14:20:33.477Z,100958.70
2022-09-01T14:23:07.121Z,100961.98
2022-09-01T14:25:37.564Z,100968.61
2022-09-01T14:28:05.305Z,100973.24
2022-09-01T14:30:33.636Z,100973.27
2022-09-01T14:33:03.995Z,100965.65
2022-09-01T14:35:33.697Z,100972.19
2022-09-01T14:38:04.889Z,100971.94
2022-09-01T14:40:33.388Z,100972.58
2022-09-01T14:43:00.960Z,100969.77
2022-09-01T14:45:28.933Z,100970.59
2022-09-01T14:48:00.321Z,100973.48
2022-09-01T14:50:32.008Z,100975.10
2022-09-01T14:53:02.116Z,100978.17
2022-09-01T14:55:31.111Z,100978.20
2022-09-01T14:57:59.919Z,100973.36
2022-09-01T15:00:29.676Z,100972.83
2022-09-01T15:02:57.928Z,100970.95
2022-09-01T15:05:25.436Z,100973.11
2022-09-01T15:07:53.475Z,100973.73
2022-09-01T15:10:25.683Z,100973.65
2022-09-01T15:12:57.694Z,100976.03
2022-09-01T15:15:27.913Z,100978.05
2022-09-01T15:17:56.202Z,100981.23
2022-09-01T15:20:42.868Z,100984.23
2022-09-01T15:23:12.474Z,100985.11
2022-09-01T15:25:40.021Z,100985.10
2022-09-01T15:28:08.868Z,100985.44
2022-09-01T15:30:38.036Z,100993.19
2022-09-01T15:33:11.998Z,100994.47
2022-09-01T15:35:45.417Z,100992.46
2022-09-01T15:38:17.596Z,100997.96
2022-09-01T15:40:52.056Z,100993.34
2022-09-01T15:43:28.574Z,100997.52
2022-09-01T15:46:00.109Z,100996.17
2022-09-01T15:48:28.726Z,100991.62
2022-09-01T15:51:24.488Z,100992.91
2022-09-01T15:53:56.852Z,100990.34
2022-09-01T15:56:24.408Z,100991.02
2022-09-01T15:59:01.685Z,100993.15
2022-09-01T16:01:33.999Z,100999.06
2022-09-01T16:04:03.546Z,101004.59
2022-09-01T16:06:33.029Z,101007.57
2022-09-01T16:09:00.715Z,101007.22
2022-09-01T16:11:28.165Z,101009.11
2022-09-01T16:13:56.485Z,101012.33
2022-09-01T16:16:47.808Z,101007.90
2022-09-01T16:19:58.286Z,101008.49
2022-09-01T16:22:34.728Z,101013.42
2022-09-01T16:25:23.700Z,101014.48
2022-09-01T16:27:51.467Z,101015.72
2022-09-01T16:30:24.477Z,101016.54
2022-09-01T16:32:51.940Z,101018.35
2022-09-01T16:35:29.480Z,101016.80
2022-09-01T16:38:12.025Z,101017.61
2022-09-01T16:41:03.546Z,101020.77
2022-09-01T16:44:01.279Z,101025.62
2022-09-01T16:46:52.611Z,101028.80
2022-09-01T16:50:05.363Z,101029.52
2022-09-01T16:53:08.356Z,101023.98
2022-09-01T16:56:09.510Z,101037.29
2022-09-01T16:58:55.448Z,101041.35
2022-09-01T17:02:03.989Z,101046.09
2022-09-01T17:05:07.270Z,101056.20
2022-09-01T17:08:13.538Z,101060.72
2022-09-01T17:11:09.882Z,101063.98
2022-09-01T17:13:51.857Z,101066.80
2022-09-01T17:16:44.000Z,101073.86
2022-09-01T17:19:19.011Z,101075.93
2022-09-01T17:22:04.527Z,101078.59
2022-09-01T17:24:39.367Z,101079.95
2022-09-01T17:27:33.555Z,101084.30
2022-09-01T17:30:02.040Z,101088.85
2022-09-01T17:33:17.362Z,101093.23
2022-09-01T17:36:18.271Z,101097.46
2022-09-01T17:39:03.005Z,101100.23
2022-09-01T17:41:44.279Z,101097.87
2022-09-01T17:44:55.557Z,101094.63
2022-09-01T17:47:29.479Z,101103.06
2022-09-01T17:50:21.939Z,101110.92
2022-09-01T17:53:49.152Z,101113.28
2022-09-01T17:56:57.762Z,101109.60
2022-09-01T17:59:40.854Z,101110.33
2022-09-01T18:02:35.889Z,101111.73
2022-09-01T18:05:28.345Z,101109.46
2022-09-01T18:08:20.504Z,101114.34
2022-09-01T18:11:00.035Z,101113.39
2022-09-01T18:14:03.289Z,101119.77
2022-09-01T18:16:47.224Z,101122.86
2022-09-01T18:19:24.331Z,101122.02
2022-09-01T18:22:00.333Z,101117.54
2022-09-01T18:24:39.896Z,101118.23
2022-09-01T18:27:08.681Z,101118.91
2022-09-01T18:29:36.087Z,101121.04
2022-09-01T18:32:42.083Z,101121.20
2022-09-01T18:35:28.949Z,101126.00
2022-09-01T18:38:30.505Z,101129.21
2022-09-01T18:41:13.204Z,101133.94
2022-09-01T18:43:50.893Z,101140.45
2022-09-01T18:46:59.517Z,101145.97
2022-09-01T18:50:34.167Z,101150.37
2022-09-01T18:53:26.224Z,101153.23
2022-09-01T18:56:52.743Z,101157.37
2022-09-01T19:00:19.226Z,101160.80
2022-09-01T19:03:17.173Z,101159.95
2022-09-01T19:05:47.132Z,101160.11
2022-09-01T19:08:50.586Z,101162.39
2022-09-01T19:12:02.889Z,101165.64
2022-09-01T19:15:06.383Z,101169.98
2022-09-01T19:17:55.163Z,101167.77
2022-09-01T19:20:44.143Z,101169.66
2022-09-01T19:23:25.344Z,101174.40
2022-09-01T19:26:01.814Z,101174.88
2022-09-01T19:28:50.770Z,101176.41
2022-09-01T19:31:34.014Z,101178.10
2022-09-01T19:34:18.775Z,101176.64
2022-09-01T19:36:50.949Z,101177.01
2022-09-01T19:39:33.228Z,101181.44
2022-09-01T19:42:17.925Z,101183.20
2022-09-01T19:45:09.102Z,101190.70
2022-09-01T19:48:02.021Z,101189.66
2022-09-01T19:50:56.244Z,101191.05
2022-09-01T19:53:38.665Z,101194.30
2022-09-01T19:56:37.290Z,101198.38
2022-09-01T19:59:27.177Z,101197.74
2022-09-01T20:02:04.936Z,101197.81
2022-09-01T20:04:57.075Z,101199.04
2022-09-01T20:07:56.871Z,101196.97
2022-09-01T20:10:56.730Z,101199.60
2022-09-01T20:14:03.353Z,101199.30
2022-09-01T20:16:42.349Z,101203.15
2022-09-01T20:19:55.186Z,101209.87
2022-09-01T20:23:07.510Z,101206.60
2022-09-01T20:26:00.855Z,101207.41
2022-09-01T20:28:33.134Z,101211.09
2022-09-01T20:31:16.709Z,101214.41
2022-09-01T20:33:54.886Z,101218.09
2022-09-01T20:36:43.473Z,101221.96
2022-09-01T20:39:40.584Z,101222.06
2022-09-01T20:42:14.478Z,101224.56
2022-09-01T20:45:11.028Z,101222.98
2022-09-01T20:47:38.299Z,101221.70
2022-09-01T20:50:13.720Z,101220.98
2022-09-01T20:52:59.421Z,101222.93
2022-09-01T20:55:49.013Z,101225.17
2022-09-01T20:59:28.951Z,101227.44
2022-09-01T21:02:24.365Z,101228.98
2022-09-01T21:05:13.184Z,101229.80
2022-09-01T21:08:34.813Z,101228.74
2022-09-01T21:11:48.100Z,101231.90
2022-09-01T21:14:31.320Z,101234.86
2022-09-01T21:17:23.672Z,101234.51
2022-09-01T21:20:30.144Z,101231.80
2022-09-01T21:22:57.601Z,101229.98
2022-09-01T21:25:25.049Z,101231.67
2022-09-01T21:28:00.921Z,101236.23
2022-09-01T21:30:34.425Z,101237.80
2022-09-01T21:33:02.779Z,101243.02
2022-09-01T21:35:31.504Z,101243.65
2022-09-01T21:37:58.924Z,101242.04
2022-09-01T21:40:27.468Z,101244.36
2022-09-01T21:43:03.348Z,101246.33
2022-09-01T21:45:33.333Z,101247.89
2022-09-01T21:48:02.381Z,101246.88
2022-09-01T21:50:30.141Z,101248.83
2022-09-01T21:52:57.634Z,101251.96
2022-09-01T21:55:25.682Z,101250.34
2022-09-01T21:57:54.206Z,101254.17
2022-09-01T22:00:31.604Z,101252.39
2022-09-01T22:03:01.374Z,101255.89
2022-09-01T22:05:30.443Z,101254.61
2022-09-01T22:07:58.629Z,101256.71
2022-09-01T22:10:31.494Z,101260.02
2022-09-01T22:13:03.046Z,101236.21
2022-09-01T22:15:31.561Z,101261.60
2022-09-01T22:17:59.006Z,101262.50
2022-09-01T22:20:28.932Z,101264.39
2022-09-01T22:22:57.611Z,101263.94
2022-09-01T22:25:25.372Z,101266.25
2022-09-01T22:27:52.767Z,101265.08
2022-09-01T22:30:20.398Z,101264.34
2022-09-01T22:32:47.898Z,101269.04
2022-09-01T22:35:17.924Z,101269.58
2022-09-01T22:37:46.145Z,101273.56
2022-09-01T22:40:15.178Z,101277.61
2022-09-01T22:42:43.721Z,101276.95
2022-09-01T22:45:13.772Z,101277.33
2022-09-01T22:47:41.323Z,101280.02
2022-09-01T22:50:10.347Z,101277.08
2022-09-01T22:52:39.802Z,101274.42
2022-09-01T22:55:09.505Z,101274.42
2022-09-01T22:57:37.497Z,101276.80
2022-09-01T23:00:09.410Z,101272.66
2022-09-01T23:02:37.621Z,101274.98
2022-09-01T23:05:06.782Z,101270.89
2022-09-01T23:07:37.229Z,101272.35
2022-09-01T23:10:08.922Z,101271.61
2022-09-01T23:12:37.606Z,101278.91
2022-09-01T23:15:06.391Z,101280.51
2022-09-01T23:17:36.374Z,101283.86
2022-09-01T23:20:08.517Z,101283.11
2022-09-01T23:22:35.946Z,101283.33
2022-09-01T23:25:04.709Z,101283.46
2022-09-01T23:27:32.600Z,101282.91
2022-09-01T23:30:00.084Z,101285.47
2022-09-01T23:32:27.917Z,101283.01
2022-09-01T23:34:56.442Z,101280.64
2022-09-01T23:37:23.916Z,101280.81
2022-09-01T23:39:52.636Z,101277.80
2022-09-01T23:42:22.110Z,101280.76
2022-09-01T23:44:50.120Z,101279.38
2022-09-01T23:47:19.308Z,101282.32
2022-09-01T23:49:46.812Z,101278.74
2022-09-01T23:52:14.645Z,101279.10
2022-09-01T23:54:42.117Z,101280.48
2022-09-01T23:57:10.270Z,101285.17
2022-09-01T23:59:37.840Z,101290.91
